Time;durP1;ratioP1;P1;durP2;ratioP2;P2;SDS_P1;SDS_P2;PMS_P1;PMS_P2;Temp;Humidity;BMP_temperature;BMP_pressure;BME280_temperature;BME280_humidity;BME280_pressure;Samples;Min_cycle;Max_cycle;Signal;HPM_P1;HPM_P2
2022/04/01 00:02:20;;;;;;;17.52;9.77;;;5.50;99.90;;;;;;5028792;28;20038;-71
2022/04/01 00:04:45;;;;;;;20.98;11.10;;;5.50;99.90;;;;;;5023298;28;20479;-71
2022/04/01 00:07:12;;;;;;;16.60;9.30;;;5.60;99.90;;;;;;5028813;28;20065;-69
2022/04/01 00:09:38;;;;;;;18.83;9.88;;;5.50;99.90;;;;;;5031368;28;20036;-69
2022/04/01 00:12:08;;;;;;;20.08;10.77;;;5.50;99.90;;;;;;5028379;28;20057;-70
2022/04/01 00:14:34;;;;;;;21.15;11.63;;;5.60;99.90;;;;;;5029480;28;20040;-70
2022/04/01 00:17:00;;;;;;;22.05;11.23;;;5.60;99.90;;;;;;5027600;28;20033;-70
2022/04/01 00:19:26;;;;;;;19.33;10.93;;;5.60;99.90;;;;;;5033010;28;20450;-70
2022/04/01 00:21:52;;;;;;;18.10;10.18;;;5.50;99.90;;;;;;5032117;28;20018;-70
2022/04/01 00:24:18;;;;;;;18.30;10.80;;;5.50;99.90;;;;;;5032907;28;20021;-70
2022/04/01 00:26:45;;;;;;;21.88;12.20;;;5.50;99.90;;;;;;5034104;28;20026;-69
2022/04/01 00:29:15;;;;;;;20.70;11.18;;;5.50;99.90;;;;;;5032525;28;20024;-70
2022/04/01 00:31:49;;;;;;;22.20;11.32;;;5.50;99.90;;;;;;5032304;28;20037;-70
2022/04/01 00:34:16;;;;;;;21.30;11.52;;;5.40;99.90;;;;;;5032745;28;20026;-70
2022/04/01 00:36:49;;;;;;;22.40;11.70;;;5.40;99.90;;;;;;5033657;28;20030;-70
2022/04/01 00:39:17;;;;;;;22.63;11.68;;;5.30;99.90;;;;;;5033658;28;20028;-70
2022/04/01 00:41:44;;;;;;;20.35;12.02;;;5.30;99.90;;;;;;5027863;28;20117;-70
2022/04/01 00:44:22;;;;;;;21.38;10.60;;;5.30;99.90;;;;;;5029187;28;20088;-71
2022/04/01 00:46:59;;;;;;;24.33;12.45;;;5.20;99.90;;;;;;5028194;28;20029;-71
2022/04/01 00:49:26;;;;;;;19.42;10.40;;;5.20;99.90;;;;;;5023929;28;20378;-71
2022/04/01 00:51:55;;;;;;;21.15;11.55;;;5.20;99.90;;;;;;5026665;28;20117;-71
2022/04/01 00:54:21;;;;;;;19.50;10.82;;;5.30;99.90;;;;;;5026500;28;20099;-71
2022/04/01 00:56:47;;;;;;;22.20;10.00;;;5.20;99.90;;;;;;5025254;28;20530;-71
2022/04/01 00:59:13;;;;;;;16.88;8.88;;;5.20;99.90;;;;;;5022785;28;20036;-71
2022/04/01 01:01:47;;;;;;;18.83;11.20;;;5.10;99.90;;;;;;5027946;28;20465;-71
2022/04/01 01:04:15;;;;;;;18.25;10.75;;;5.10;99.90;;;;;;5022857;28;20386;-70
2022/04/01 01:06:43;;;;;;;20.17;9.63;;;5.10;99.90;;;;;;5032805;28;20026;-71
2022/04/01 01:09:10;;;;;;;15.98;9.23;;;5.00;99.90;;;;;;5022109;28;20120;-71
2022/04/01 01:11:36;;;;;;;18.02;9.07;;;5.00;99.90;;;;;;5020983;28;20182;-71
2022/04/01 01:14:08;;;;;;;18.15;9.00;;;4.90;99.90;;;;;;5023689;28;20025;-71
2022/04/01 01:16:40;;;;;;;16.60;9.32;;;4.90;99.90;;;;;;5024043;28;20100;-71
2022/04/01 01:19:11;;;;;;;16.02;9.10;;;4.90;99.90;;;;;;5023418;28;20029;-71
2022/04/01 01:21:38;;;;;;;15.85;8.27;;;4.90;99.90;;;;;;5024459;28;20022;-71
2022/04/01 01:24:06;;;;;;;18.70;9.98;;;4.80;99.90;;;;;;5024988;28;20375;-71
2022/04/01 01:26:34;;;;;;;17.52;9.30;;;4.80;99.90;;;;;;5023342;28;20026;-71
2022/04/01 01:29:00;;;;;;;16.13;8.73;;;4.80;99.90;;;;;;5024824;28;20033;-71
2022/04/01 01:31:26;;;;;;;16.83;9.52;;;4.70;99.90;;;;;;5023451;28;20037;-71
2022/04/01 01:33:54;;;;;;;16.17;8.73;;;4.60;99.90;;;;;;5020121;28;20032;-71
2022/04/01 01:36:20;;;;;;;17.50;8.88;;;4.50;99.90;;;;;;5022153;28;20034;-71
2022/04/01 01:38:46;;;;;;;16.00;8.40;;;4.50;99.90;;;;;;5022489;28;20037;-70
2022/04/01 01:41:12;;;;;;;16.83;8.90;;;4.50;99.90;;;;;;5022581;28;20033;-71
2022/04/01 01:43:39;;;;;;;17.08;8.88;;;4.50;99.90;;;;;;5022650;28;20036;-71
2022/04/01 01:46:05;;;;;;;18.67;9.38;;;4.50;99.90;;;;;;5029117;28;20156;-71
2022/04/01 01:48:30;;;;;;;21.13;10.57;;;4.50;99.90;;;;;;5023092;28;20097;-71
2022/04/01 01:56:24;;;;;;;16.80;8.90;;;4.40;99.90;;;;;;5022248;28;20080;-70
2022/04/01 01:58:50;;;;;;;19.77;9.35;;;4.40;99.90;;;;;;5025283;28;20033;-70
2022/04/01 02:01:16;;;;;;;21.10;11.27;;;4.40;99.90;;;;;;5026203;28;20022;-70
2022/04/01 02:03:42;;;;;;;18.75;9.50;;;4.40;99.90;;;;;;5025696;28;20033;-70
2022/04/01 02:06:08;;;;;;;21.50;10.23;;;4.50;99.90;;;;;;5026447;28;20064;-70
2022/04/01 02:08:33;;;;;;;18.40;10.23;;;4.40;99.90;;;;;;5022950;28;20053;-70
2022/04/01 02:10:59;;;;;;;22.33;11.52;;;4.50;99.90;;;;;;5023662;28;20029;-70
2022/04/01 02:13:29;;;;;;;22.17;10.93;;;4.50;99.90;;;;;;5020666;28;20485;-70
2022/04/01 02:15:55;;;;;;;20.75;10.82;;;4.50;99.90;;;;;;5021485;28;20032;-70
2022/04/01 02:18:21;;;;;;;16.98;9.70;;;4.50;99.90;;;;;;5025244;28;20500;-70
2022/04/01 02:20:48;;;;;;;18.40;9.88;;;4.50;99.90;;;;;;5022054;28;20121;-70
2022/04/01 02:23:14;;;;;;;18.17;10.25;;;4.50;99.90;;;;;;5022690;28;20486;-70
2022/04/01 02:25:42;;;;;;;22.83;10.48;;;4.50;99.90;;;;;;5021534;28;20036;-70
2022/04/01 02:28:09;;;;;;;21.65;10.57;;;4.50;99.90;;;;;;5024020;28;20041;-70
2022/04/01 02:30:35;;;;;;;17.25;9.40;;;4.50;99.90;;;;;;5021638;28;20147;-73
2022/04/01 02:33:02;;;;;;;16.92;9.10;;;4.60;99.90;;;;;;5026063;28;20112;-70
2022/04/01 02:35:28;;;;;;;18.13;9.70;;;4.60;99.90;;;;;;5028284;28;20048;-70
2022/04/01 02:37:54;;;;;;;20.73;9.95;;;4.60;99.90;;;;;;5018761;28;20091;-70
2022/04/01 02:40:20;;;;;;;19.23;9.63;;;4.60;99.90;;;;;;5019992;28;20477;-70
2022/04/01 02:42:46;;;;;;;19.10;9.98;;;4.60;99.90;;;;;;5021258;28;20041;-70
2022/04/01 02:45:13;;;;;;;17.95;10.02;;;4.60;99.90;;;;;;5026210;28;20034;-70
2022/04/01 02:47:40;;;;;;;18.75;9.75;;;4.60;99.90;;;;;;5025480;28;20123;-70
2022/04/01 02:50:07;;;;;;;16.25;9.23;;;4.60;99.90;;;;;;5027753;28;20067;-70
2022/04/01 02:52:33;;;;;;;17.65;9.32;;;4.60;99.90;;;;;;5023320;28;20029;-71
2022/04/01 02:54:58;;;;;;;15.75;9.45;;;4.60;99.90;;;;;;5025688;28;20022;-70
2022/04/01 02:57:24;;;;;;;16.08;8.57;;;4.60;99.90;;;;;;5023416;28;20022;-70
2022/04/01 02:59:50;;;;;;;17.33;8.85;;;4.50;99.90;;;;;;5024957;28;20026;-70
2022/04/01 03:02:16;;;;;;;12.77;7.50;;;4.60;99.90;;;;;;5022820;28;20045;-70
2022/04/01 03:04:42;;;;;;;15.20;8.63;;;4.60;99.90;;;;;;5025876;28;20029;-70
2022/04/01 03:07:07;;;;;;;18.08;9.35;;;4.60;99.90;;;;;;5020281;28;20026;-70
2022/04/01 03:09:34;;;;;;;17.30;10.02;;;4.60;99.90;;;;;;5021816;28;20029;-70
2022/04/01 03:12:00;;;;;;;20.92;10.88;;;4.60;99.90;;;;;;5023612;28;20063;-70
2022/04/01 03:14:26;;;;;;;26.65;12.93;;;4.60;99.90;;;;;;5025195;28;20021;-70
2022/04/01 03:16:52;;;;;;;28.85;14.25;;;4.60;99.90;;;;;;5023516;28;20037;-70
2022/04/01 03:19:18;;;;;;;33.90;16.15;;;4.70;99.90;;;;;;5018527;28;20061;-70
2022/04/01 03:21:45;;;;;;;35.53;16.60;;;4.70;99.90;;;;;;5023330;28;20018;-70
2022/04/01 03:24:11;;;;;;;38.30;18.58;;;4.70;99.90;;;;;;5025397;28;20033;-70
2022/04/01 03:26:38;;;;;;;44.70;21.02;;;4.60;99.90;;;;;;5022586;28;20351;-70
2022/04/01 03:29:06;;;;;;;44.95;21.30;;;4.70;99.90;;;;;;5023215;28;20041;-71
2022/04/01 03:31:32;;;;;;;45.33;21.90;;;4.70;99.90;;;;;;5022886;28;20026;-72
2022/04/01 03:33:58;;;;;;;47.08;22.52;;;4.70;99.90;;;;;;5024437;28;20030;-71
2022/04/01 03:36:23;;;;;;;44.17;22.30;;;4.70;99.90;;;;;;5024178;28;20457;-70
2022/04/01 03:38:50;;;;;;;41.75;20.73;;;4.70;99.90;;;;;;5023007;28;20034;-70
2022/04/01 03:41:16;;;;;;;46.42;21.73;;;4.70;99.90;;;;;;5019248;28;20026;-70
2022/04/01 03:43:42;;;;;;;42.83;21.08;;;4.60;99.90;;;;;;5023970;28;20055;-71
2022/04/01 03:46:13;;;;;;;48.75;22.55;;;4.70;99.90;;;;;;5020285;28;20382;-71
2022/04/01 03:48:45;;;;;;;47.95;23.35;;;4.60;99.90;;;;;;5021029;28;20318;-70
2022/04/01 03:51:19;;;;;;;50.15;22.60;;;4.60;99.90;;;;;;5024595;28;20038;-69
2022/04/01 03:53:57;;;;;;;52.58;23.35;;;4.60;99.90;;;;;;5023249;28;20041;-69
2022/04/01 03:56:29;;;;;;;57.40;24.88;;;4.60;99.90;;;;;;5022568;28;20065;-69
2022/04/01 03:59:00;;;;;;;55.50;24.05;;;4.60;99.90;;;;;;5026920;28;20025;-69
2022/04/01 04:01:27;;;;;;;54.58;24.80;;;4.50;99.90;;;;;;5027741;28;20053;-70
2022/04/01 04:03:54;;;;;;;56.22;24.98;;;4.50;99.90;;;;;;5023959;28;20021;-71
2022/04/01 04:06:20;;;;;;;53.92;22.90;;;4.50;99.90;;;;;;5022002;28;20033;-71
2022/04/01 04:08:46;;;;;;;50.28;22.98;;;4.50;99.90;;;;;;5019050;28;20091;-71
2022/04/01 04:11:12;;;;;;;50.92;23.15;;;4.50;99.90;;;;;;5025270;28;20427;-71
2022/04/01 04:13:38;;;;;;;49.10;23.35;;;4.50;99.90;;;;;;5025196;28;20087;-71
2022/04/01 04:16:05;;;;;;;51.22;22.08;;;4.50;99.90;;;;;;5024932;28;20082;-71
2022/04/01 04:18:42;;;;;;;47.42;22.05;;;4.40;99.90;;;;;;5027209;28;20039;-71
2022/04/01 04:21:36;;;;;;;44.35;20.98;;;4.40;99.90;;;;;;5027494;28;20497;-71
2022/04/01 04:24:02;;;;;;;45.90;23.10;;;4.40;99.90;;;;;;5029198;28;20033;-71
2022/04/01 04:26:38;;;;;;;45.85;21.13;;;4.50;99.90;;;;;;5025698;28;20071;-71
2022/04/01 04:29:10;;;;;;;45.85;22.52;;;4.40;99.90;;;;;;5025918;28;20022;-72
2022/04/01 04:31:37;;;;;;;45.42;22.17;;;4.40;99.90;;;;;;5030703;28;20494;-71
2022/04/01 04:34:04;;;;;;;42.58;21.27;;;4.40;99.90;;;;;;5025840;28;20030;-71
2022/04/01 04:36:39;;;;;;;36.35;18.67;;;4.40;99.90;;;;;;5023749;28;20030;-71
2022/04/01 04:39:07;;;;;;;35.63;17.15;;;4.40;99.90;;;;;;5024097;28;20543;-71
2022/04/01 04:41:33;;;;;;;34.05;16.05;;;4.40;99.90;;;;;;5019500;28;20474;-71
2022/04/01 04:44:00;;;;;;;31.45;16.23;;;4.50;99.90;;;;;;5022873;28;20603;-71
2022/04/01 04:46:27;;;;;;;30.63;15.18;;;4.40;99.90;;;;;;5022557;28;20033;-71
2022/04/01 04:48:55;;;;;;;28.00;14.32;;;4.30;99.90;;;;;;5017955;28;20025;-70
2022/04/01 04:51:30;;;;;;;29.38;14.55;;;4.30;99.90;;;;;;5024873;28;20547;-70
2022/04/01 04:54:00;;;;;;;25.85;12.68;;;4.30;99.90;;;;;;5023222;28;20033;-72
2022/04/01 04:56:26;;;;;;;22.45;11.57;;;4.30;99.90;;;;;;5027024;28;20037;-72
2022/04/01 04:58:55;;;;;;;21.08;11.32;;;4.30;99.90;;;;;;5020895;28;20553;-71
2022/04/01 05:01:43;;;;;;;21.88;12.07;;;4.30;99.90;;;;;;5017437;28;20033;-71
2022/04/01 05:04:39;;;;;;;21.02;10.27;;;4.30;99.90;;;;;;5021460;28;20324;-70
2022/04/01 05:07:17;;;;;;;19.60;9.52;;;4.30;99.90;;;;;;5019596;28;20049;-71
2022/04/01 05:09:57;;;;;;;17.73;9.15;;;4.20;99.90;;;;;;5027581;28;20036;-71
2022/04/01 05:12:34;;;;;;;14.00;8.20;;;4.20;99.90;;;;;;5024924;28;20383;-71
2022/04/01 05:15:08;;;;;;;17.08;9.07;;;4.20;99.90;;;;;;5020731;28;20026;-71
2022/04/01 05:18:10;;;;;;;12.45;6.95;;;4.20;99.90;;;;;;5022597;28;20110;-72
2022/04/01 05:20:52;;;;;;;15.65;7.82;;;4.20;99.90;;;;;;5026639;28;20080;-71
2022/04/01 05:23:41;;;;;;;13.23;7.40;;;4.10;99.90;;;;;;5022526;28;20052;-72
2022/04/01 05:26:14;;;;;;;12.93;6.93;;;4.00;99.90;;;;;;5023848;28;20360;-72
2022/04/01 05:28:46;;;;;;;11.75;6.75;;;4.10;99.90;;;;;;5023792;28;20025;-75
2022/04/01 05:31:42;;;;;;;13.40;7.70;;;4.00;99.90;;;;;;5025846;28;20034;-71
2022/04/01 05:34:25;;;;;;;13.27;7.07;;;3.90;99.90;;;;;;5026600;28;20033;-72
2022/04/01 05:36:52;;;;;;;15.65;7.32;;;3.90;99.90;;;;;;5023023;28;20040;-73
2022/04/01 05:39:19;;;;;;;11.65;6.45;;;3.90;99.90;;;;;;5019150;28;20071;-72
2022/04/01 05:41:46;;;;;;;14.38;7.63;;;3.90;99.90;;;;;;5022690;28;20076;-72
2022/04/01 05:44:13;;;;;;;16.23;8.15;;;3.90;99.90;;;;;;5023549;28;20037;-73
2022/04/01 05:46:40;;;;;;;13.90;7.78;;;3.90;99.90;;;;;;5021231;28;20029;-72
2022/04/01 05:49:06;;;;;;;11.25;6.88;;;3.80;99.90;;;;;;5016532;28;20064;-72
2022/04/01 05:51:33;;;;;;;13.63;7.07;;;3.90;99.90;;;;;;5023636;28;20505;-72
2022/04/01 05:54:00;;;;;;;13.10;6.97;;;3.80;99.90;;;;;;5021740;28;20029;-71
2022/04/01 05:56:27;;;;;;;13.45;6.72;;;3.80;99.90;;;;;;5024431;28;20820;-71
2022/04/01 05:58:53;;;;;;;16.73;8.50;;;3.80;99.90;;;;;;5020595;28;20172;-71
2022/04/01 06:01:31;;;;;;;12.90;7.72;;;3.80;99.90;;;;;;5020353;28;20468;-70
2022/04/01 06:04:34;;;;;;;13.35;7.53;;;3.80;99.90;;;;;;5022769;28;20187;-71
2022/04/01 06:07:10;;;;;;;13.50;7.13;;;3.70;99.90;;;;;;5026119;28;20027;-70
2022/04/01 06:09:54;;;;;;;14.18;7.70;;;3.70;99.90;;;;;;5022969;28;20081;-71
2022/04/01 06:12:38;;;;;;;;;;;3.60;99.90;;;;;;5022355;28;20397;-71
2022/04/01 06:15:33;;;;;;;15.85;7.72;;;3.60;99.90;;;;;;5022300;28;20401;-71
2022/04/01 06:18:53;;;;;;;13.45;7.60;;;3.60;99.90;;;;;;5024153;28;20044;-71
2022/04/01 06:21:24;;;;;;;15.13;8.75;;;3.50;99.90;;;;;;5021618;28;20028;-71
2022/04/01 06:23:49;;;;;;;17.42;8.95;;;3.50;99.90;;;;;;5019648;28;20442;-71
2022/04/01 06:26:16;;;;;;;15.20;8.30;;;3.40;99.90;;;;;;5024944;28;20021;-70
2022/04/01 06:28:56;;;;;;;18.08;9.55;;;3.40;99.90;;;;;;5026099;28;20025;-71
2022/04/01 06:31:25;;;;;;;14.68;8.95;;;3.50;99.90;;;;;;5025328;28;20033;-71
2022/04/01 06:34:14;;;;;;;16.42;8.95;;;3.50;99.90;;;;;;5027035;28;20029;-71
2022/04/01 06:36:45;;;;;;;17.83;9.00;;;3.50;99.90;;;;;;5025511;28;20498;-70
2022/04/01 06:39:19;;;;;;;19.27;9.18;;;3.60;99.90;;;;;;5029270;28;20029;-70
2022/04/01 06:41:55;;;;;;;15.10;7.88;;;3.60;99.90;;;;;;5024970;28;20025;-70
2022/04/01 06:44:21;;;;;;;15.05;7.85;;;3.70;99.90;;;;;;5030020;23;20044;-73
2022/04/01 06:46:48;;;;;;;14.48;8.25;;;3.60;99.90;;;;;;5006326;28;20390;-72
2022/04/01 06:49:14;;;;;;;15.68;8.60;;;3.60;99.90;;;;;;5008129;28;20394;-73
2022/04/01 06:51:42;;;;;;;18.88;8.82;;;3.50;99.90;;;;;;5000472;28;20072;-72
2022/04/01 06:54:08;;;;;;;16.60;8.25;;;3.50;99.90;;;;;;5007138;28;20048;-71
2022/04/01 06:56:34;;;;;;;14.45;8.52;;;3.60;99.90;;;;;;5004289;28;20038;-71
2022/04/01 06:58:59;;;;;;;17.30;8.55;;;3.60;99.90;;;;;;5001745;28;20038;-70
2022/04/01 07:01:25;;;;;;;18.55;9.27;;;3.50;99.90;;;;;;5005892;28;20390;-71
2022/04/01 07:03:54;;;;;;;15.32;7.80;;;3.50;99.90;;;;;;5002208;28;20029;-70
2022/04/01 07:06:22;;;;;;;16.98;8.57;;;3.60;99.90;;;;;;5006107;28;20032;-70
2022/04/01 07:08:48;;;;;;;15.57;8.95;;;3.60;99.90;;;;;;5006008;28;20053;-70
2022/04/01 07:11:14;;;;;;;15.13;8.15;;;3.50;99.90;;;;;;5003270;28;20026;-71
2022/04/01 07:13:40;;;;;;;14.93;8.57;;;3.50;99.90;;;;;;5002870;28;20025;-71
2022/04/01 07:16:06;;;;;;;15.18;7.82;;;3.60;99.90;;;;;;5003072;28;20475;-71
2022/04/01 07:18:33;;;;;;;15.10;8.70;;;3.60;99.90;;;;;;5002970;28;20030;-71
2022/04/01 07:20:59;;;;;;;15.52;8.93;;;3.70;99.90;;;;;;5001487;28;20109;-71
2022/04/01 07:23:24;;;;;;;16.98;9.23;;;3.70;99.90;;;;;;5005499;28;20117;-70
2022/04/01 07:25:50;;;;;;;14.68;8.20;;;3.70;99.90;;;;;;5006794;28;20069;-70
2022/04/01 07:28:16;;;;;;;16.25;9.18;;;3.70;99.90;;;;;;5008003;28;20373;-70
2022/04/01 07:30:41;;;;;;;16.83;9.07;;;3.60;99.90;;;;;;5009230;28;20406;-71
2022/04/01 07:33:10;;;;;;;14.35;8.00;;;3.70;99.90;;;;;;5005532;28;20072;-71
2022/04/01 07:35:36;;;;;;;16.33;8.98;;;3.70;99.90;;;;;;5009481;28;20109;-71
2022/04/01 07:38:03;;;;;;;16.73;9.93;;;3.70;99.90;;;;;;5005752;28;20345;-71
2022/04/01 07:40:30;;;;;;;15.15;9.18;;;3.70;99.90;;;;;;5007997;28;20088;-71
2022/04/01 07:42:56;;;;;;;15.10;8.93;;;3.70;99.90;;;;;;5005252;28;20425;-71
2022/04/01 07:45:23;;;;;;;17.50;9.35;;;3.70;99.90;;;;;;5021085;28;20022;-71
2022/04/01 07:47:51;;;;;;;16.33;9.27;;;3.60;99.90;;;;;;5012951;28;20136;-70
2022/04/01 07:50:19;;;;;;;17.98;9.82;;;3.60;99.90;;;;;;5008135;28;20667;-71
2022/04/01 07:52:45;;;;;;;19.85;9.95;;;3.70;99.90;;;;;;5004988;28;20026;-72
2022/04/01 07:55:13;;;;;;;18.95;10.77;;;3.60;99.90;;;;;;5008324;28;20108;-71
2022/04/01 07:57:39;;;;;;;18.10;10.32;;;3.70;99.90;;;;;;5002368;28;20041;-71
2022/04/01 08:00:07;;;;;;;20.02;10.75;;;3.80;99.90;;;;;;5007194;28;20053;-69
2022/04/01 08:02:33;;;;;;;18.17;10.55;;;3.70;99.90;;;;;;5003539;28;20042;-71
2022/04/01 08:04:59;;;;;;;20.58;10.88;;;3.70;99.90;;;;;;5003713;28;20033;-71
2022/04/01 08:07:24;;;;;;;17.25;10.38;;;3.70;99.90;;;;;;5002133;28;20031;-69
2022/04/01 08:09:52;;;;;;;17.48;9.75;;;3.70;99.90;;;;;;5003999;28;20113;-71
2022/04/01 08:12:17;;;;;;;18.55;11.30;;;3.80;99.90;;;;;;5002602;28;20026;-69
2022/04/01 08:14:43;;;;;;;19.52;11.70;;;3.70;99.90;;;;;;5006521;28;20422;-71
2022/04/01 08:17:12;;;;;;;20.98;11.68;;;3.70;99.90;;;;;;5004659;28;20460;-71
2022/04/01 08:19:42;;;;;;;19.23;10.88;;;3.70;99.90;;;;;;5000355;28;20127;-73
2022/04/01 08:22:09;;;;;;;19.40;11.98;;;3.80;99.90;;;;;;5004800;28;20026;-73
2022/04/01 08:24:35;;;;;;;18.77;10.60;;;3.80;99.90;;;;;;5007221;28;20038;-74
2022/04/01 08:27:01;;;;;;;23.52;11.63;;;3.80;99.90;;;;;;5007511;28;20541;-74
2022/04/01 08:29:29;;;;;;;24.38;12.77;;;3.70;99.90;;;;;;5006382;28;20133;-74
2022/04/01 08:31:56;;;;;;;20.13;11.10;;;3.70;99.90;;;;;;5008555;28;20109;-69
2022/04/01 08:34:22;;;;;;;17.48;10.27;;;3.70;99.90;;;;;;5004161;28;20109;-71
2022/04/01 08:36:47;;;;;;;18.13;11.05;;;3.70;99.90;;;;;;5005483;28;20158;-66
2022/04/01 08:39:13;;;;;;;19.23;10.95;;;3.70;99.90;;;;;;5006311;28;20065;-69
2022/04/01 08:41:39;;;;;;;19.20;11.55;;;3.70;99.90;;;;;;5005959;28;20021;-70
2022/04/01 08:44:05;;;;;;;21.15;10.90;;;3.70;99.90;;;;;;5007159;28;20026;-70
2022/04/01 08:46:31;;;;;;;19.95;11.23;;;3.80;99.90;;;;;;5016096;28;20042;-70
2022/04/01 08:48:57;;;;;;;23.48;12.43;;;3.80;99.90;;;;;;5004648;28;20044;-70
2022/04/01 08:51:23;;;;;;;19.90;11.38;;;3.80;99.90;;;;;;5005385;28;20042;-70
2022/04/01 08:53:49;;;;;;;18.13;10.93;;;3.80;99.90;;;;;;5003286;28;20029;-71
2022/04/01 08:56:19;;;;;;;19.52;11.20;;;3.90;99.90;;;;;;5008072;28;20030;-72
2022/04/01 08:58:45;;;;;;;19.42;11.18;;;3.90;99.90;;;;;;5004546;28;20026;-70
2022/04/01 09:01:13;;;;;;;22.10;11.68;;;4.00;99.90;;;;;;4999833;28;20050;-70
2022/04/01 09:03:40;;;;;;;20.65;12.00;;;4.00;99.90;;;;;;5002017;28;20022;-71
2022/04/01 09:06:07;;;;;;;17.38;10.10;;;4.10;99.90;;;;;;5010611;28;20028;-71
2022/04/01 09:08:38;;;;;;;20.52;11.18;;;4.10;99.90;;;;;;5002288;28;20026;-72
2022/04/01 09:11:19;;;;;;;20.27;11.27;;;4.20;99.90;;;;;;5004325;28;20022;-71
2022/04/01 09:13:50;;;;;;;21.80;10.57;;;4.20;99.90;;;;;;5004382;28;20036;-71
2022/04/01 09:16:32;;;;;;;23.27;12.80;;;4.20;99.90;;;;;;5004015;28;20399;-71
2022/04/01 09:19:08;;;;;;;20.17;11.23;;;4.20;99.90;;;;;;5006968;28;20489;-72
2022/04/01 09:21:39;;;;;;;23.25;11.98;;;4.20;99.90;;;;;;4997230;28;20041;-71
2022/04/01 09:24:05;;;;;;;21.02;11.73;;;4.20;99.90;;;;;;5003237;28;20505;-70
2022/04/01 09:26:35;;;;;;;18.88;10.73;;;4.20;99.90;;;;;;5008625;28;20891;-70
2022/04/01 09:29:02;;;;;;;20.33;12.23;;;4.30;99.90;;;;;;5008317;28;20022;-71
2022/04/01 09:31:41;;;;;;;20.98;12.15;;;4.20;99.90;;;;;;5007580;28;20602;-72
2022/04/01 09:34:13;;;;;;;20.45;10.95;;;4.30;99.90;;;;;;5009575;28;20398;-73
2022/04/01 09:36:41;;;;;;;19.58;11.00;;;4.20;99.90;;;;;;5002742;28;20475;-72
2022/04/01 09:39:13;;;;;;;18.33;10.82;;;4.30;99.90;;;;;;5003604;28;20073;-71
2022/04/01 09:41:48;;;;;;;15.40;8.95;;;4.20;99.90;;;;;;5007350;28;20018;-71
2022/04/01 09:44:22;;;;;;;18.63;10.48;;;4.10;99.90;;;;;;5002769;28;20022;-70
2022/04/01 09:46:49;;;;;;;;;;;4.00;99.90;;;;;;5007762;28;20121;-71
2022/04/01 09:49:28;;;;;;;19.08;10.68;;;4.00;99.90;;;;;;5003610;28;20426;-71
2022/04/01 09:51:54;;;;;;;18.38;10.07;;;4.00;99.90;;;;;;5019947;28;21439;-70
2022/04/01 09:54:22;;;;;;;21.48;10.82;;;4.10;99.90;;;;;;5004989;28;20046;-70
2022/04/01 09:56:54;;;;;;;18.63;10.23;;;4.10;99.90;;;;;;5007395;28;20061;-71
2022/04/01 09:59:21;;;;;;;22.55;11.38;;;4.10;99.90;;;;;;5005948;28;20034;-70
2022/04/01 10:01:47;;;;;;;17.23;10.32;;;4.00;99.90;;;;;;4999151;28;20137;-70
2022/04/01 10:04:13;;;;;;;22.00;10.88;;;4.00;99.90;;;;;;5002297;28;20145;-71
2022/04/01 10:06:40;;;;;;;18.65;9.95;;;4.00;99.90;;;;;;5006986;28;20022;-71
2022/04/01 10:09:08;;;;;;;16.23;9.25;;;4.00;99.90;;;;;;5007923;28;20025;-70
2022/04/01 10:11:40;;;;;;;15.98;9.50;;;4.10;99.90;;;;;;5021746;28;20029;-71
2022/04/01 10:14:16;;;;;;;19.33;10.05;;;4.00;99.90;;;;;;5005899;28;20030;-70
2022/04/01 10:16:44;;;;;;;18.75;10.63;;;3.90;99.90;;;;;;5009595;28;20410;-70
2022/04/01 10:19:19;;;;;;;16.95;10.05;;;4.00;99.90;;;;;;4999667;28;20109;-70
2022/04/01 10:21:45;;;;;;;15.10;9.77;;;4.10;99.90;;;;;;5000407;28;20143;-69
2022/04/01 10:24:14;;;;;;;15.52;8.80;;;4.10;99.90;;;;;;5001569;28;20022;-69
2022/04/01 10:27:03;;;;;;;13.30;8.52;;;4.10;99.90;;;;;;5006393;28;20053;-71
2022/04/01 10:29:29;;;;;;;13.85;8.05;;;4.10;99.90;;;;;;4997883;28;20136;-72
2022/04/01 10:32:15;;;;;;;13.27;8.35;;;4.10;99.90;;;;;;5007131;28;20368;-71
2022/04/01 10:34:48;;;;;;;18.00;10.90;;;4.00;99.90;;;;;;5003442;28;20034;-72
2022/04/01 10:37:15;;;;;;;13.90;8.10;;;4.00;99.90;;;;;;5007481;28;20486;-71
2022/04/01 10:39:55;;;;;;;13.13;8.40;;;3.90;99.90;;;;;;5001763;28;20031;-71
2022/04/01 10:42:32;;;;;;;12.95;7.25;;;3.90;99.90;;;;;;5002852;28;20109;-71
2022/04/01 10:45:01;;;;;;;12.65;7.95;;;3.90;99.90;;;;;;5006216;28;20021;-69
2022/04/01 10:53:52;;;;;;;13.57;8.35;;;3.90;99.90;;;;;;5006748;28;20053;-71
2022/04/01 10:56:23;;;;;;;12.82;7.65;;;3.90;99.90;;;;;;5006163;28;20034;-71
2022/04/01 10:59:11;;;;;;;12.65;7.63;;;4.00;99.90;;;;;;5005467;28;20133;-73
2022/04/01 11:01:43;;;;;;;14.02;8.20;;;4.00;99.90;;;;;;5007224;28;20032;-72
2022/04/01 11:04:12;;;;;;;15.18;8.88;;;4.00;99.90;;;;;;5001200;28;20030;-73
2022/04/01 11:07:00;;;;;;;13.77;8.18;;;4.10;99.90;;;;;;5004984;28;20762;-72
2022/04/01 11:09:45;;;;;;;14.57;8.10;;;4.00;99.90;;;;;;5004762;28;20048;-72
2022/04/01 11:12:18;;;;;;;12.45;7.35;;;4.00;99.90;;;;;;5005665;28;20057;-73
2022/04/01 11:15:12;;;;;;;12.70;7.83;;;4.00;99.90;;;;;;5006184;28;20022;-72
2022/04/01 11:17:37;;;;;;;13.90;8.18;;;3.90;99.90;;;;;;5002705;28;20103;-73
2022/04/01 11:20:13;;;;;;;14.70;7.93;;;3.90;99.90;;;;;;5002724;28;20022;-72
2022/04/01 11:22:54;;;;;;;15.45;8.70;;;4.00;99.90;;;;;;5001903;28;20042;-72
2022/04/01 11:25:27;;;;;;;13.35;8.30;;;4.00;99.90;;;;;;5004268;28;20116;-72
2022/04/01 11:28:06;;;;;;;14.27;7.83;;;4.00;99.90;;;;;;5003775;28;20083;-72
2022/04/01 11:30:42;;;;;;;11.40;6.38;;;4.00;99.90;;;;;;5003330;28;20022;-72
2022/04/01 11:33:18;;;;;;;10.40;6.57;;;3.90;99.90;;;;;;5003077;28;20030;-71
2022/04/01 11:35:46;;;;;;;10.88;7.05;;;3.80;99.90;;;;;;5003175;28;20479;-74
2022/04/01 11:38:15;;;;;;;11.48;7.00;;;3.70;99.90;;;;;;5004038;28;20038;-73
2022/04/01 11:40:42;;;;;;;11.82;7.22;;;3.70;99.90;;;;;;5006529;28;20415;-73
2022/04/01 11:43:10;;;;;;;13.65;7.22;;;3.70;99.90;;;;;;4999464;28;20029;-73
2022/04/01 11:45:57;;;;;;;12.65;7.97;;;3.60;99.90;;;;;;5004133;28;20707;-72
2022/04/01 11:48:28;;;;;;;11.50;7.25;;;3.60;99.90;;;;;;5001835;28;20022;-72
2022/04/01 11:51:16;;;;;;;11.43;7.28;;;3.60;99.90;;;;;;5004053;28;20037;-72
2022/04/01 11:53:53;;;;;;;10.65;6.90;;;3.60;99.90;;;;;;5004198;28;20038;-73
2022/04/01 11:56:26;;;;;;;12.13;7.13;;;3.40;99.90;;;;;;5003483;28;20030;-72
2022/04/01 11:58:56;;;;;;;10.70;5.60;;;3.30;99.90;;;;;;5003033;28;20061;-71
2022/04/01 12:01:25;;;;;;;10.40;4.93;;;3.20;99.90;;;;;;5003257;28;20034;-72
2022/04/01 12:04:00;;;;;;;9.38;5.05;;;3.10;99.90;;;;;;5003966;28;20034;-71
2022/04/01 12:09:13;;;;;;;;;;;3.00;99.90;;;;;;5003100;28;20517;-72
2022/04/01 12:11:45;;;;;;;8.38;4.15;;;2.90;99.90;;;;;;5002996;28;20302;-72
2022/04/01 12:14:11;;;;;;;6.43;3.78;;;2.80;99.90;;;;;;5009557;28;20026;-72
2022/04/01 12:16:43;;;;;;;7.07;4.20;;;2.80;99.90;;;;;;5004068;28;20026;-73
2022/04/01 12:19:19;;;;;;;7.68;3.75;;;2.60;99.90;;;;;;5019501;28;20405;-71
2022/04/01 12:21:54;;;;;;;6.30;3.63;;;2.60;99.90;;;;;;5004091;28;20049;-71
2022/04/01 12:24:20;;;;;;;8.55;4.82;;;2.80;99.90;;;;;;5009589;28;20105;-72
2022/04/01 12:26:49;;;;;;;7.93;4.53;;;2.90;99.90;;;;;;5009472;28;20493;-72
2022/04/01 12:29:23;;;;;;;8.38;4.47;;;3.00;99.90;;;;;;5010364;28;20367;-72
2022/04/01 12:31:49;;;;;;;;;;;3.10;99.90;;;;;;5011539;28;20033;-72
2022/04/01 12:34:14;;;;;;;8.10;4.10;;;3.20;99.90;;;;;;5010649;28;19995;-72
2022/04/01 12:36:40;;;;;;;6.47;3.67;;;3.30;99.90;;;;;;5006499;28;20072;-71
2022/04/01 12:39:11;;;;;;;6.47;4.32;;;3.20;99.90;;;;;;5006921;28;20022;-71
2022/04/01 12:41:52;;;;;;;6.35;4.32;;;3.30;99.90;;;;;;5005649;28;20053;-71
2022/04/01 12:44:22;;;;;;;6.13;3.55;;;3.40;99.90;;;;;;5006674;28;20030;-71
2022/04/01 12:46:49;;;;;;;5.65;2.97;;;3.60;99.90;;;;;;5006539;28;20027;-70
2022/04/01 12:49:20;;;;;;;3.67;2.38;;;3.60;99.90;;;;;;5021472;28;20041;-72
2022/04/01 12:51:53;;;;;;;4.57;2.95;;;3.70;99.90;;;;;;5011354;28;20042;-71
2022/04/01 12:54:38;;;;;;;4.13;2.60;;;3.70;99.90;;;;;;5008358;28;20550;-70
2022/04/01 12:57:11;;;;;;;4.68;2.33;;;3.70;99.90;;;;;;5005365;28;20076;-73
2022/04/01 12:59:45;;;;;;;3.92;2.35;;;3.70;99.90;;;;;;5005881;28;20026;-71
2022/04/01 13:02:15;;;;;;;3.30;2.15;;;3.40;99.90;;;;;;5003920;28;20050;-71
2022/04/01 13:04:47;;;;;;;3.28;2.28;;;3.20;99.90;;;;;;5003737;28;20076;-70
2022/04/01 13:07:22;;;;;;;5.25;2.90;;;3.10;99.90;;;;;;5004783;28;20023;-72
2022/04/01 13:09:57;;;;;;;5.88;3.75;;;2.90;99.90;;;;;;4999977;28;20506;-72
2022/04/01 13:12:28;;;;;;;6.88;3.25;;;3.00;99.90;;;;;;5006919;28;20038;-72
2022/04/01 13:14:59;;;;;;;5.57;3.58;;;2.90;99.90;;;;;;5003777;28;20036;-72
2022/04/01 13:17:25;;;;;;;5.10;3.17;;;2.80;99.90;;;;;;5003314;28;20034;-71